createdAt,value
2023-02-04T00:00:13.799Z,31.77
2023-02-04T00:02:41.826Z,23.00
2023-02-04T00:05:09.828Z,15.38
2023-02-04T00:07:37.030Z,20.95
2023-02-04T00:10:05.478Z,19.30
2023-02-04T00:12:32.597Z,34.42
2023-02-04T00:14:59.338Z,35.63
2023-02-04T00:17:27.591Z,25.45
2023-02-04T00:19:54.232Z,24.92
2023-02-04T00:22:21.265Z,16.60
2023-02-04T00:24:50.639Z,31.48
2023-02-04T00:27:17.655Z,22.25
2023-02-04T00:29:45.598Z,29.63
2023-02-04T00:32:13.513Z,27.05
2023-02-04T00:34:40.282Z,38.28
2023-02-04T00:37:08.399Z,26.08
2023-02-04T00:39:35.041Z,27.75
2023-02-04T00:42:03.183Z,34.20
2023-02-04T00:44:29.817Z,32.70
2023-02-04T00:46:57.410Z,38.95
2023-02-04T00:49:25.292Z,23.52
2023-02-04T00:51:52.173Z,27.80
2023-02-04T00:54:18.838Z,32.08
2023-02-04T00:56:46.367Z,28.58
2023-02-04T00:59:13.251Z,20.95
2023-02-04T01:01:40.836Z,27.65
2023-02-04T01:04:08.644Z,32.80
2023-02-04T01:06:37.060Z,34.42
2023-02-04T01:09:04.343Z,30.33
2023-02-04T01:11:31.631Z,33.63
2023-02-04T01:13:58.672Z,34.15
2023-02-04T01:16:25.762Z,35.85
2023-02-04T01:18:55.808Z,20.25
2023-02-04T01:21:24.787Z,21.45
2023-02-04T01:23:52.218Z,25.73
2023-02-04T01:26:19.424Z,29.52
2023-02-04T01:28:46.200Z,32.25
2023-02-04T01:31:14.815Z,28.73
2023-02-04T01:33:41.728Z,36.00
2023-02-04T01:36:08.592Z,34.00
2023-02-04T01:38:35.614Z,23.02
2023-02-04T01:41:04.222Z,26.15
2023-02-04T01:43:32.495Z,30.73
2023-02-04T01:45:59.815Z,32.70
2023-02-04T01:48:26.520Z,29.00
2023-02-04T01:51:15.928Z,38.97
2023-02-04T01:53:43.041Z,35.33
2023-02-04T01:56:23.334Z,37.45
2023-02-04T01:58:50.217Z,34.05
2023-02-04T02:01:34.705Z,33.92
2023-02-04T02:04:02.267Z,30.10
2023-02-04T02:06:29.745Z,48.60
2023-02-04T02:08:58.477Z,27.77
2023-02-04T02:11:26.730Z,22.05
2023-02-04T02:13:54.230Z,44.80
2023-02-04T02:16:21.709Z,28.48
2023-02-04T02:18:49.240Z,32.45
2023-02-04T02:21:21.839Z,22.40
2023-02-04T02:24:00.979Z,28.48
2023-02-04T02:26:30.462Z,30.08
2023-02-04T02:28:57.135Z,40.05
2023-02-04T02:31:24.004Z,25.40
2023-02-04T02:33:51.046Z,26.13
2023-02-04T02:36:17.882Z,29.13
2023-02-04T02:38:44.741Z,33.05
2023-02-04T02:41:12.884Z,37.20
2023-02-04T02:43:40.067Z,49.80
2023-02-04T02:46:07.195Z,31.45
2023-02-04T02:48:34.106Z,29.58
2023-02-04T02:51:02.708Z,28.33
2023-02-04T02:53:29.398Z,30.02
2023-02-04T02:55:56.271Z,25.10
2023-02-04T02:58:36.322Z,31.30
2023-02-04T03:01:07.574Z,34.47
2023-02-04T03:03:39.131Z,39.08
2023-02-04T03:06:22.926Z,23.45
2023-02-04T03:08:55.224Z,43.85
2023-02-04T03:11:23.148Z,32.40
2023-02-04T03:13:51.401Z,32.95
2023-02-04T03:16:19.457Z,35.53
2023-02-04T03:18:46.234Z,28.40
2023-02-04T03:21:13.082Z,35.22
2023-02-04T03:23:40.228Z,31.52
2023-02-04T03:26:07.539Z,34.17
2023-02-04T03:28:34.483Z,29.60
2023-02-04T03:31:01.758Z,33.95
2023-02-04T03:33:31.902Z,37.08
2023-02-04T03:35:59.179Z,27.88
2023-02-04T03:38:26.081Z,29.98
2023-02-04T03:40:52.795Z,31.50
2023-02-04T03:43:21.874Z,24.35
2023-02-04T03:45:49.022Z,30.75
2023-02-04T03:48:16.035Z,18.13
2023-02-04T03:50:43.332Z,28.55
2023-02-04T03:53:10.427Z,25.65
2023-02-04T03:55:37.178Z,30.42
2023-02-04T03:58:04.496Z,35.05
2023-02-04T04:00:33.166Z,24.70
2023-02-04T04:03:00.436Z,45.03
2023-02-04T04:05:28.650Z,20.25
2023-02-04T04:07:55.545Z,31.77
2023-02-04T04:10:22.409Z,39.20
2023-02-04T04:12:49.093Z,32.92
2023-02-04T04:15:15.873Z,32.03
2023-02-04T04:17:42.671Z,34.22
2023-02-04T04:20:10.020Z,28.08
2023-02-04T04:22:36.685Z,26.70
2023-02-04T04:25:03.411Z,26.95
2023-02-04T04:27:30.353Z,36.08
2023-02-04T04:29:57.264Z,25.50
2023-02-04T04:32:24.061Z,24.17
2023-02-04T04:34:50.882Z,27.02
2023-02-04T04:37:17.567Z,33.03
2023-02-04T04:39:44.236Z,27.92
2023-02-04T04:42:10.893Z,26.70
2023-02-04T04:44:37.529Z,31.90
2023-02-04T04:47:04.349Z,32.03
2023-02-04T04:49:30.983Z,26.52
2023-02-04T04:51:57.630Z,28.10
2023-02-04T04:54:24.434Z,27.98
2023-02-04T04:56:51.128Z,19.58
2023-02-04T04:59:17.849Z,20.73
2023-02-04T05:01:44.590Z,23.88
2023-02-04T05:04:11.319Z,40.60
2023-02-04T05:06:37.912Z,26.17
2023-02-04T05:09:04.632Z,28.70
2023-02-04T05:11:31.244Z,21.00
2023-02-04T05:13:57.941Z,25.00
2023-02-04T05:16:24.592Z,19.60
2023-02-04T05:18:51.283Z,23.98
2023-02-04T05:21:17.974Z,26.67
2023-02-04T05:23:44.683Z,28.60
2023-02-04T05:26:15.262Z,18.63
2023-02-04T05:28:46.288Z,23.10
2023-02-04T05:31:13.029Z,23.63
2023-02-04T05:33:39.730Z,27.70
2023-02-04T05:36:06.775Z,29.52
2023-02-04T05:38:33.443Z,21.67
2023-02-04T05:41:00.101Z,30.35
2023-02-04T05:43:28.116Z,31.13
2023-02-04T05:45:54.860Z,29.20
2023-02-04T05:48:21.505Z,21.98
2023-02-04T05:50:48.153Z,29.10
2023-02-04T05:53:14.768Z,26.60
2023-02-04T05:55:41.450Z,27.50
2023-02-04T05:58:08.107Z,29.08
2023-02-04T06:00:34.839Z,33.95
2023-02-04T06:03:01.530Z,30.58
2023-02-04T06:05:28.234Z,22.98
2023-02-04T06:07:54.901Z,20.75
2023-02-04T06:10:21.571Z,31.55
2023-02-04T06:12:48.786Z,38.00
2023-02-04T06:15:16.170Z,36.63
2023-02-04T06:17:42.799Z,37.10
2023-02-04T06:20:11.439Z,26.27
2023-02-04T06:22:37.996Z,38.88
2023-02-04T06:27:31.321Z,27.80
2023-02-04T06:29:57.903Z,27.45
2023-02-04T06:32:24.504Z,29.85
2023-02-04T06:34:50.971Z,27.40
2023-02-04T06:37:17.483Z,13.43
2023-02-04T06:39:44.064Z,25.30
2023-02-04T06:42:10.601Z,29.70
2023-02-04T06:44:37.203Z,21.80
2023-02-04T06:47:03.744Z,24.95
2023-02-04T06:49:30.220Z,24.17
2023-02-04T06:54:23.312Z,17.27
2023-02-04T06:56:49.838Z,30.08
2023-02-04T07:01:42.763Z,26.45
2023-02-04T07:04:09.364Z,24.10
2023-02-04T07:06:35.800Z,21.85
2023-02-04T07:11:28.738Z,32.40
2023-02-04T07:13:55.289Z,21.10
2023-02-04T07:16:21.958Z,28.95
2023-02-04T07:18:48.515Z,22.20
2023-02-04T07:21:15.286Z,16.42
2023-02-04T07:23:41.752Z,22.27
2023-02-04T07:28:36.857Z,17.25
2023-02-04T07:31:03.678Z,20.98
2023-02-04T07:33:30.339Z,23.10
2023-02-04T07:35:56.901Z,29.05
2023-02-04T07:38:23.376Z,31.63
2023-02-04T07:40:49.875Z,25.30
2023-02-04T07:43:16.489Z,27.45
2023-02-04T07:48:10.646Z,21.42
2023-02-04T07:50:37.590Z,30.08
2023-02-04T07:53:04.118Z,21.38
2023-02-04T07:55:30.655Z,22.98
2023-02-04T07:57:57.330Z,25.20
2023-02-04T08:00:24.007Z,25.00
2023-02-04T08:02:50.811Z,19.35
2023-02-04T08:05:17.614Z,23.02
2023-02-04T08:07:44.136Z,28.58
2023-02-04T08:10:11.176Z,27.75
2023-02-04T08:12:37.740Z,30.83
2023-02-04T08:15:04.794Z,15.10
2023-02-04T08:17:31.330Z,9.43
2023-02-04T08:19:57.856Z,6.65
2023-02-04T08:22:24.432Z,7.03
2023-02-04T08:24:50.918Z,11.63
2023-02-04T08:27:17.503Z,6.05
2023-02-04T08:29:43.932Z,8.52
2023-02-04T08:32:10.480Z,15.30
2023-02-04T08:34:36.959Z,10.05
2023-02-04T08:37:03.415Z,10.00
2023-02-04T08:39:29.904Z,7.22
2023-02-04T08:41:56.394Z,5.05
2023-02-04T08:44:22.868Z,6.75
2023-02-04T08:46:49.362Z,5.70
2023-02-04T08:49:16.066Z,2.50
2023-02-04T08:51:42.635Z,8.18
2023-02-04T08:54:09.101Z,4.65
2023-02-04T08:56:37.853Z,5.05
2023-02-04T08:59:04.497Z,3.10
2023-02-04T09:01:31.029Z,7.30
2023-02-04T09:03:57.482Z,3.30
2023-02-04T09:08:50.364Z,5.13
2023-02-04T09:11:16.846Z,4.20
2023-02-04T09:13:43.356Z,3.30
2023-02-04T09:16:10.803Z,5.38
2023-02-04T09:18:37.335Z,4.97
2023-02-04T09:21:04.010Z,6.00
2023-02-04T09:23:30.537Z,3.55
2023-02-04T09:25:57.082Z,6.45
2023-02-04T09:28:23.531Z,5.05
2023-02-04T09:33:17.071Z,7.20
2023-02-04T09:35:43.681Z,3.83
2023-02-04T09:38:10.651Z,3.85
2023-02-04T09:40:42.121Z,3.50
2023-02-04T09:43:14.092Z,3.40
2023-02-04T09:45:40.963Z,4.05
2023-02-04T09:48:10.014Z,3.60
2023-02-04T09:50:37.070Z,4.13
2023-02-04T09:53:06.407Z,4.20
2023-02-04T09:55:36.115Z,5.93
2023-02-04T09:58:03.076Z,6.40
2023-02-04T10:00:31.590Z,3.38
2023-02-04T10:03:00.785Z,4.10
2023-02-04T10:05:33.332Z,7.10
2023-02-04T10:08:00.507Z,5.57
2023-02-04T10:10:28.457Z,3.83
2023-02-04T10:12:57.245Z,4.40
2023-02-04T10:15:23.796Z,6.28
2023-02-04T10:17:54.641Z,5.07
2023-02-04T10:20:23.468Z,4.07
2023-02-04T10:22:53.369Z,6.22
2023-02-04T10:25:22.141Z,5.53
2023-02-04T10:28:00.197Z,4.50
2023-02-04T10:30:35.679Z,4.80
2023-02-04T10:33:22.211Z,4.28
2023-02-04T10:35:51.615Z,4.80
2023-02-04T10:38:18.918Z,4.78
2023-02-04T10:40:47.195Z,3.38
2023-02-04T10:43:21.209Z,4.10
2023-02-04T10:45:56.170Z,8.90
2023-02-04T10:48:23.039Z,4.68
2023-02-04T10:50:49.823Z,4.05
2023-02-04T10:53:38.308Z,4.25
2023-02-04T10:56:06.420Z,4.32
2023-02-04T10:58:33.359Z,4.25
2023-02-04T11:00:59.860Z,3.80
2023-02-04T11:03:30.687Z,3.40
2023-02-04T11:05:59.160Z,3.45
2023-02-04T11:08:27.455Z,4.25
2023-02-04T11:11:22.598Z,3.22
2023-02-04T11:13:51.878Z,8.38
2023-02-04T11:33:06.541Z,3.13
2023-02-04T11:35:33.577Z,3.42
2023-02-04T11:38:00.277Z,3.10
2023-02-04T11:40:34.902Z,3.00
2023-02-04T11:43:02.970Z,4.40
2023-02-04T11:45:37.328Z,5.05
2023-02-04T11:48:12.671Z,3.78
2023-02-04T11:50:39.569Z,2.63
2023-02-04T11:53:06.171Z,3.25
2023-02-04T11:55:36.316Z,3.65
2023-02-04T11:58:03.683Z,3.13
2023-02-04T12:00:32.165Z,2.83
2023-02-04T12:03:17.490Z,3.72
2023-02-04T12:05:47.753Z,2.30
2023-02-04T12:08:25.278Z,3.00
2023-02-04T12:11:00.132Z,2.50
2023-02-04T12:13:29.634Z,2.40
2023-02-04T12:16:03.564Z,2.78
2023-02-04T12:18:31.978Z,2.50
2023-02-04T12:20:59.898Z,6.60
2023-02-04T12:23:28.470Z,2.72
2023-02-04T12:25:55.512Z,4.07
2023-02-04T12:28:22.493Z,3.08
2023-02-04T12:30:49.091Z,7.00
2023-02-04T12:33:15.740Z,2.75
2023-02-04T12:35:42.365Z,4.07
2023-02-04T12:38:10.258Z,5.03
2023-02-04T12:40:36.904Z,3.20
2023-02-04T12:43:03.597Z,7.70
2023-02-04T12:45:30.273Z,2.97
2023-02-04T12:47:56.963Z,3.78
2023-02-04T12:50:23.673Z,4.35
2023-02-04T12:52:56.179Z,6.63
2023-02-04T12:55:23.988Z,7.82
2023-02-04T12:57:50.865Z,4.45
2023-02-04T13:00:19.073Z,3.28
2023-02-04T13:02:46.324Z,3.20
2023-02-04T13:05:14.051Z,3.33
2023-02-04T13:07:41.455Z,6.35
2023-02-04T13:10:10.614Z,3.45
2023-02-04T13:12:37.426Z,6.03
2023-02-04T13:15:04.822Z,6.68
2023-02-04T13:17:31.401Z,3.03
2023-02-04T13:19:58.211Z,4.10
2023-02-04T13:22:24.793Z,2.95
2023-02-04T13:24:51.351Z,2.50
2023-02-04T13:27:17.872Z,3.00
2023-02-04T13:29:45.858Z,3.05
2023-02-04T13:32:12.392Z,2.60
2023-02-04T13:34:38.950Z,3.00
2023-02-04T13:37:05.555Z,3.10
2023-02-04T13:39:32.084Z,3.33
2023-02-04T13:41:58.692Z,5.85
2023-02-04T13:44:25.496Z,3.50
2023-02-04T13:46:52.143Z,6.43
2023-02-04T13:49:19.153Z,3.30
2023-02-04T13:51:45.708Z,2.67
2023-02-04T13:54:12.478Z,3.05
2023-02-04T13:56:39.506Z,2.78
2023-02-04T13:59:08.290Z,3.60
2023-02-04T14:01:34.844Z,5.13
2023-02-04T14:04:02.057Z,3.53
2023-02-04T14:06:33.832Z,3.30
2023-02-04T14:09:01.012Z,2.70
2023-02-04T14:11:27.615Z,5.32
2023-02-04T14:13:54.595Z,3.42
2023-02-04T14:16:22.127Z,2.80
2023-02-04T14:18:48.738Z,3.10
2023-02-04T14:21:15.278Z,3.38
2023-02-04T14:23:42.746Z,3.08
2023-02-04T14:26:10.539Z,5.50
2023-02-04T14:28:37.176Z,2.97
2023-02-04T14:31:03.884Z,3.83
2023-02-04T14:33:30.625Z,4.25
2023-02-04T14:35:57.362Z,3.45
2023-02-04T14:38:23.904Z,2.90
2023-02-04T14:40:50.477Z,4.88
2023-02-04T14:43:16.975Z,3.20
2023-02-04T14:45:44.423Z,3.25
2023-02-04T14:48:11.602Z,2.90
2023-02-04T14:50:38.087Z,2.50
2023-02-04T14:53:04.693Z,3.60
2023-02-04T14:55:31.240Z,3.53
2023-02-04T14:57:57.749Z,5.88
2023-02-04T15:00:24.873Z,5.13
2023-02-04T15:02:51.711Z,3.92
2023-02-04T15:05:18.551Z,5.13
2023-02-04T15:07:45.082Z,8.75
2023-02-04T15:10:14.837Z,4.00
2023-02-04T15:12:41.750Z,9.77
2023-02-04T15:15:08.860Z,4.90
2023-02-04T15:17:35.369Z,5.10
2023-02-04T15:20:04.030Z,2.85
2023-02-04T15:22:30.672Z,4.50
2023-02-04T15:24:57.264Z,4.03
2023-02-04T15:27:23.813Z,3.38
2023-02-04T15:29:51.108Z,3.75
2023-02-04T15:32:17.596Z,4.82
2023-02-04T15:37:10.964Z,3.30
2023-02-04T15:39:40.480Z,3.88
2023-02-04T15:42:07.034Z,4.55
2023-02-04T15:44:33.697Z,7.93
2023-02-04T15:47:00.291Z,6.07
2023-02-04T15:49:27.242Z,6.80
2023-02-04T15:51:53.791Z,9.00
2023-02-04T15:54:20.261Z,11.25
2023-02-04T15:56:46.788Z,9.60
2023-02-04T15:59:13.462Z,6.10
2023-02-04T16:01:40.100Z,9.98
2023-02-04T16:04:06.735Z,6.68
2023-02-04T16:06:33.419Z,5.20
2023-02-04T16:08:59.994Z,12.40
2023-02-04T16:11:26.798Z,12.55
2023-02-04T16:13:53.410Z,9.52
2023-02-04T16:16:20.413Z,7.07
2023-02-04T16:18:46.957Z,6.65
2023-02-04T16:21:13.589Z,5.28
2023-02-04T16:23:41.378Z,8.85
2023-02-04T16:26:09.267Z,9.05
2023-02-04T16:28:35.764Z,6.47
2023-02-04T16:31:02.357Z,6.47
2023-02-04T16:33:28.931Z,7.47
2023-02-04T16:35:58.550Z,8.85
2023-02-04T16:38:25.566Z,8.27
2023-02-04T16:40:52.139Z,8.13
2023-02-04T16:43:19.124Z,4.57
2023-02-04T16:45:45.645Z,6.57
2023-02-04T16:48:12.231Z,5.75
2023-02-04T16:50:38.704Z,8.05
2023-02-04T16:53:05.332Z,8.70
2023-02-04T16:55:33.600Z,7.97
2023-02-04T16:58:00.342Z,8.25
2023-02-04T17:00:27.005Z,11.63
2023-02-04T17:02:53.594Z,16.33
2023-02-04T17:05:20.123Z,12.05
2023-02-04T17:07:46.640Z,30.90
2023-02-04T17:10:13.156Z,32.55
2023-02-04T17:12:39.660Z,23.98
2023-02-04T17:15:07.253Z,30.00
2023-02-04T17:17:33.805Z,30.33
2023-02-04T17:20:00.447Z,37.05
2023-02-04T17:22:27.061Z,39.85
2023-02-04T17:24:53.585Z,20.75
2023-02-04T17:27:20.121Z,39.08
2023-02-04T17:29:46.610Z,24.02
2023-02-04T17:32:13.275Z,19.98
2023-02-04T17:34:39.847Z,17.77
2023-02-04T17:37:06.392Z,15.25
2023-02-04T17:39:33.625Z,15.85
2023-02-04T17:42:00.140Z,12.65
2023-02-04T17:44:27.846Z,14.13
2023-02-04T17:46:54.708Z,18.65
2023-02-04T17:49:21.282Z,10.88
2023-02-04T17:51:47.856Z,9.38
2023-02-04T17:54:14.640Z,10.27
2023-02-04T17:56:41.149Z,7.95
2023-02-04T17:59:11.198Z,10.07
2023-02-04T18:01:38.049Z,9.25
2023-02-04T18:04:11.455Z,14.07
2023-02-04T18:06:37.965Z,10.23
2023-02-04T18:09:11.849Z,9.98
2023-02-04T18:11:39.665Z,7.82
2023-02-04T18:14:27.176Z,8.50
2023-02-04T18:16:57.871Z,7.25
2023-02-04T18:19:29.108Z,10.02
2023-02-04T18:21:59.335Z,8.05
2023-02-04T18:24:30.584Z,7.55
2023-02-04T18:27:01.139Z,9.68
2023-02-04T18:29:40.501Z,12.90
2023-02-04T18:32:20.565Z,10.48
2023-02-04T18:34:49.825Z,9.43
2023-02-04T18:37:25.290Z,7.63
2023-02-04T18:39:57.660Z,8.88
2023-02-04T18:42:27.549Z,8.80
2023-02-04T18:44:56.689Z,7.55
2023-02-04T18:47:31.024Z,12.63
2023-02-04T18:50:10.564Z,11.45
2023-02-04T18:52:44.055Z,10.55
2023-02-04T18:55:23.069Z,11.70
2023-02-04T18:57:49.545Z,13.10
2023-02-04T19:00:23.923Z,12.43
2023-02-04T19:02:59.630Z,8.02
2023-02-04T19:05:37.539Z,10.75
2023-02-04T19:08:03.923Z,8.25
2023-02-04T19:13:25.696Z,12.73
2023-02-04T19:16:17.628Z,9.75
2023-02-04T19:18:45.443Z,12.48
2023-02-04T19:21:25.852Z,13.82
2023-02-04T19:24:02.292Z,16.33
2023-02-04T19:26:40.021Z,21.40
2023-02-04T19:29:40.779Z,17.25
2023-02-04T19:32:23.287Z,15.23
2023-02-04T19:34:51.398Z,14.10
2023-02-04T19:37:22.918Z,16.25
2023-02-04T19:39:51.101Z,16.33
2023-02-04T19:42:35.183Z,16.80
2023-02-04T19:45:17.868Z,20.42
2023-02-04T19:47:45.473Z,17.38
2023-02-04T19:50:22.490Z,19.75
2023-02-04T19:52:54.530Z,14.15
2023-02-04T19:55:28.866Z,12.85
2023-02-04T19:58:11.440Z,16.95
2023-02-04T20:00:46.448Z,13.10
2023-02-04T20:03:25.759Z,12.98
2023-02-04T20:05:52.597Z,12.98
2023-02-04T20:08:49.903Z,14.27
2023-02-04T20:11:31.303Z,11.23
2023-02-04T20:14:10.072Z,12.30
2023-02-04T20:16:46.750Z,14.68
2023-02-04T20:19:35.840Z,10.02
2023-02-04T20:22:27.998Z,10.82
2023-02-04T20:24:56.425Z,12.35
2023-02-04T20:27:25.535Z,11.63
2023-02-04T20:30:00.930Z,11.00
2023-02-04T20:32:30.087Z,13.68
2023-02-04T20:35:11.512Z,12.60
2023-02-04T20:37:39.117Z,10.60
2023-02-04T20:40:31.700Z,10.00
2023-02-04T20:43:20.076Z,14.48
2023-02-04T20:45:57.377Z,10.68
2023-02-04T20:48:37.856Z,10.05
2023-02-04T20:51:14.844Z,10.70
2023-02-04T20:56:25.886Z,18.48
2023-02-04T20:59:19.372Z,13.35
2023-02-04T21:01:50.969Z,10.68
2023-02-04T21:04:41.683Z,12.50
2023-02-04T21:07:15.255Z,10.50
2023-02-04T21:09:41.722Z,10.82
2023-02-04T21:12:08.634Z,10.40
2023-02-04T21:14:35.607Z,13.05
2023-02-04T21:17:02.230Z,16.45
2023-02-04T21:19:28.954Z,10.07
2023-02-04T21:21:57.306Z,10.73
2023-02-04T21:24:25.028Z,10.38
2023-02-04T21:26:51.896Z,9.32
2023-02-04T21:29:18.528Z,11.45
2023-02-04T21:31:46.534Z,18.80
2023-02-04T21:34:13.331Z,19.33
2023-02-04T21:36:39.982Z,18.58
2023-02-04T21:39:06.532Z,18.33
2023-02-04T21:41:33.017Z,19.58
2023-02-04T21:43:59.532Z,23.27
2023-02-04T21:46:26.050Z,20.05
2023-02-04T21:48:52.554Z,22.85
2023-02-04T21:53:45.565Z,28.47
2023-02-04T21:56:12.215Z,30.63
2023-02-04T21:58:38.813Z,29.85
2023-02-04T22:01:05.529Z,26.35
2023-02-04T22:03:32.091Z,19.58
2023-02-04T22:05:58.673Z,18.35
2023-02-04T22:08:25.189Z,18.42
2023-02-04T22:10:51.658Z,13.30
2023-02-04T22:13:18.094Z,14.70
2023-02-04T22:15:44.618Z,18.38
2023-02-04T22:18:12.049Z,18.98
2023-02-04T22:20:39.547Z,26.52
2023-02-04T22:23:06.527Z,23.98
2023-02-04T22:25:33.375Z,22.45
2023-02-04T22:28:00.078Z,21.90
2023-02-04T22:30:26.782Z,17.17
2023-02-04T22:32:53.283Z,19.15
2023-02-04T22:35:19.905Z,23.27
2023-02-04T22:37:46.375Z,18.83
2023-02-04T22:40:13.119Z,23.77
2023-02-04T22:42:39.715Z,20.92
2023-02-04T22:45:07.974Z,24.80
2023-02-04T22:47:34.427Z,17.70
2023-02-04T22:50:00.875Z,20.00
2023-02-04T22:52:27.378Z,20.23
2023-02-04T22:54:53.848Z,22.25
2023-02-04T22:57:20.308Z,22.55
2023-02-04T22:59:46.803Z,18.88
2023-02-04T23:18:05.394Z,12.10
2023-02-04T23:20:32.911Z,12.07
2023-02-04T23:22:59.493Z,13.90
2023-02-04T23:25:26.137Z,11.05
2023-02-04T23:27:52.798Z,13.55
2023-02-04T23:30:19.845Z,14.40
2023-02-04T23:32:46.384Z,13.52
2023-02-04T23:35:13.203Z,13.60
2023-02-04T23:37:39.672Z,23.02
2023-02-04T23:40:06.851Z,16.60
2023-02-04T23:42:33.459Z,16.15
2023-02-04T23:44:59.944Z,17.70
2023-02-04T23:47:26.509Z,15.98
2023-02-04T23:49:53.062Z,13.38
2023-02-04T23:52:19.667Z,13.60
2023-02-04T23:54:46.197Z,15.90
2023-02-04T23:57:12.723Z,12.90
2023-02-04T23:59:42.068Z,15.85
